Suomigracht — PHBT — position and weather

sailwx.info

Track history (hours):
 
Tides and Currents Weather Stations Pressure Air Temp Water Temp Dewpoint Dewpoint Depression Visibility Wind Speed Wind Dir Waves Ship Positions

Suomigracht

Last reported at 2017-Jul-07 17:40 UTC. Time now 2017-Jul-28 08:38 UTC.
Position N 48°39' W 009°07'.
Warning: this ship's position is 20 days out of date.

Length 173 m; beam 26 m.

Type: Cargo ship. MMSI: 246100000.

Date/timePositionNaut miles runAvg speedWind from/ knotsBaromVisibWave heightAir tempDewpointWater temp
2017-Jul-07 17:40N 48°39' W 009°07'316.2
2017-Jul-07 17:30N 48°40' W 009°04'7815.7
2017-Jul-07 12:32N 49°06' W 007°12'016.0
2017-Jul-07 12:31N 49°06' W 007°11'1315.9
2017-Jul-07 11:43N 49°10' W 006°53'316.3
2017-Jul-07 11:31N 49°11' W 006°48'816.4
2017-Jul-07 11:01N 49°13' W 006°36'816.6
2017-Jul-07 10:30N 49°15' W 006°24'816.8
2017-Jul-07 10:00N 49°18' W 006°11'816.8
2017-Jul-07 09:31N 49°20' W 005°59'917.2
2017-Jul-07 09:00N 49°23' W 005°46'917.2
2017-Jul-07 08:30N 49°26' W 005°34'1017.1
2017-Jul-07 07:55N 49°29' W 005°19'716.8
2017-Jul-07 07:31N 49°31' W 005°09'1016.5
2017-Jul-07 06:55N 49°34' W 004°55'716.2
2017-Jul-07 06:30N 49°36' W 004°45'816.0
2017-Jul-07 05:59N 49°39' W 004°33'715.7
2017-Jul-07 05:30N 49°42' W 004°22'815.5
2017-Jul-07 04:58N 49°44' W 004°10'715.4
2017-Jul-07 04:30N 49°47' W 003°60'815.3
2017-Jul-07 04:01N 49°49' W 003°48'815.6
2017-Jul-07 03:31N 49°51' W 003°36'816.0
2017-Jul-07 03:01N 49°53' W 003°25'816.5
2017-Jul-07 02:31N 49°56' W 003°13'917.1
2017-Jul-07 02:01N 49°59' W 002°60'917.6
2017-Jul-07 01:31N 50°01' W 002°47'918.0
2017-Jul-07 01:01N 50°04' W 002°34'918.4
2017-Jul-07 00:31N 50°07' W 002°20'918.7
2017-Jul-07 00:01N 50°09' W 002°06'1018.7
2017-Jul-06 23:29N 50°12' W 001°51'1718.0
2017-Jul-06 22:33N 50°17' W 001°26'323 6.9
2017-Jul-05 00:05N 53°42' E 005°18'0 0.0
2017-Jul-04 23:50N 53°42' E 005°18'0 0.0
2017-Jul-04 23:29N 53°42' E 005°18'0 0.0
2017-Jul-04 22:56N 53°42' E 005°18'0 0.0
2017-Jul-04 22:29N 53°42' E 005°18'0 0.0
2017-Jul-04 21:59N 53°42' E 005°18'57 2.3
2017-Jul-03 21:22N 53°27' E 006°50'0 0.0
2017-Jul-03 20:58N 53°27' E 006°50'0 0.0
2017-Jul-03 20:16N 53°27' E 006°50'0 0.0
2017-Jul-03 20:01N 53°27' E 006°50'0 0.0
2017-Jul-03 19:31N 53°27' E 006°50'0 0.0
2017-Jul-03 19:00N 53°27' E 006°50'0 0.0
2017-Jul-03 18:27N 53°27' E 006°50'0 0.0
2017-Jul-03 18:00N 53°27' E 006°50'0 0.0
2017-Jul-03 17:30N 53°27' E 006°50'0 0.0
2017-Jul-03 17:00N 53°27' E 006°50'0 0.0
2017-Jul-03 16:30N 53°27' E 006°50'0 0.0
2017-Jul-03 16:00N 53°27' E 006°50'1 2.4
2017-Jul-03 15:30N 53°28' E 006°50'83 6.5
2017-Jul-03 02:51N 54°50' E 006°34'516.0
2017-Jul-03 02:30N 54°56' E 006°34'816.0
2017-Jul-03 02:00N 55°04' E 006°36'815.9
2017-Jul-03 01:31N 55°12' E 006°37'816.0
2017-Jul-03 00:59N 55°20' E 006°38'815.9
2017-Jul-03 00:30N 55°28' E 006°40'18213.0
2017-Jul-02 10:35N 57°48' E 010°08'414.9
2017-Jul-02 10:19N 57°48' E 010°16'515.3
2017-Jul-02 10:00N 57°48' E 010°25'715.0
2017-Jul-02 09:30N 57°48' E 010°39'611.5
2017-Jul-02 09:00N 57°44' E 010°47'611.8
2017-Jul-02 08:31N 57°41' E 010°37'0 0.4
2017-Jul-02 07:54N 57°42' E 010°38'0 0.0
2017-Jul-02 07:30N 57°42' E 010°38'0 0.0
2017-Jul-02 07:00N 57°42' E 010°38'0 0.0
2017-Jul-02 06:30N 57°42' E 010°38'0 0.0
2017-Jul-02 06:00N 57°42' E 010°38'0 0.0
2017-Jul-02 05:30N 57°42' E 010°38'0 0.0
2017-Jul-02 05:00N 57°42' E 010°38'0 0.0
2017-Jul-02 04:30N 57°42' E 010°38'0 0.0
2017-Jul-02 03:57N 57°42' E 010°38'0 0.0
2017-Jul-02 03:30N 57°42' E 010°38'0 0.0
2017-Jul-02 02:48N 57°42' E 010°38'0 0.0
2017-Jul-02 02:15N 57°42' E 010°38'0 0.0
2017-Jul-02 02:00N 57°42' E 010°38'0 0.0
2017-Jul-02 01:03N 57°42' E 010°38'0 0.0
2017-Jul-02 00:42N 57°42' E 010°38'0 0.0
2017-Jul-02 00:18N 57°42' E 010°38'0 0.1
2017-Jul-02 00:00N 57°41' E 010°38'1 2.6
2017-Jul-01 23:28N 57°41' E 010°40'711.9
2017-Jul-01 22:52N 57°37' E 010°51'514.9
2017-Jul-01 22:30N 57°35' E 011°00'816.2
2017-Jul-01 22:00N 57°32' E 011°15'815.8
2017-Jul-01 21:30N 57°28' E 011°26'917.1
2017-Jul-01 21:00N 57°20' E 011°32'917.2
2017-Jul-01 20:30N 57°12' E 011°37'817.1
2017-Jul-01 20:00N 57°04' E 011°42'917.0
2017-Jul-01 19:30N 56°56' E 011°48'816.7
2017-Jul-01 19:00N 56°48' E 011°53'815.8
2017-Jul-01 18:30N 56°40' E 011°48'816.4
2017-Jul-01 18:00N 56°33' E 011°41'9715.1
2017-Jul-01 11:35N 54°59' E 010°59'116.1
2017-Jul-01 11:30N 54°58' E 010°57'816.5
2017-Jul-01 11:00N 54°51' E 010°50'816.3
2017-Jul-01 10:30N 54°43' E 010°47'815.1
2017-Jul-01 10:00N 54°38' E 010°56'816.4
2017-Jul-01 09:31N 54°36' E 011°10'917.1
2017-Jul-01 09:00N 54°32' E 011°23'917.2
2017-Jul-01 08:31N 54°29' E 011°36'816.8
2017-Jul-01 08:00N 54°26' E 011°50'917.2
2017-Jul-01 07:30N 54°26' E 012°05'714.5
2017-Jul-01 07:00N 54°31' E 012°13'816.3
2017-Jul-01 06:30N 54°38' E 012°20'4516.8
2017-Jul-01 03:51N 54°57' E 013°30'617.4
2017-Jul-01 03:30N 54°59' E 013°40'917.1
2017-Jul-01 03:00N 55°02' E 013°54'816.3
2017-Jul-01 02:30N 55°06' E 014°07'917.2
2017-Jul-01 02:00N 55°13' E 014°16'817.2
2017-Jul-01 01:30N 55°19' E 014°25'917.2
2017-Jul-01 01:00N 55°26' E 014°35'917.1
2017-Jul-01 00:30N 55°31' E 014°47'917.2
2017-Jul-01 00:00N 55°35' E 015°00'917.3
2017-Jun-30 23:30N 55°39' E 015°14'817.0
2017-Jun-30 23:00N 55°43' E 015°27'917.1
2017-Jun-30 22:30N 55°48' E 015°40'917.2
2017-Jun-30 22:00N 55°52' E 015°53'917.3
2017-Jun-30 21:30N 55°56' E 016°07'917.4
2017-Jun-30 21:00N 56°01' E 016°20'917.7
2017-Jun-30 20:30N 56°05' E 016°33'917.1
2017-Jun-30 20:00N 56°11' E 016°45'917.4
2017-Jun-30 19:30N 56°19' E 016°51'18816.9
2017-Jun-30 08:24N 59°05' E 019°34'716.4
2017-Jun-30 08:00N 59°11' E 019°40'816.9
2017-Jun-30 07:30N 59°18' E 019°49'917.1
2017-Jun-30 07:00N 59°26' E 019°58'816.2
2017-Jun-30 06:30N 59°33' E 020°04'815.6
2017-Jun-30 06:00N 59°39' E 019°54'816.1
2017-Jun-30 05:30N 59°45' E 019°43'816.4
2017-Jun-30 05:00N 59°51' E 019°33'816.6
2017-Jun-30 04:31N 59°58' E 019°22'816.8
2017-Jun-30 04:01N 60°04' E 019°11'816.9
2017-Jun-30 03:30N 60°10' E 019°00'917.2
2017-Jun-30 03:00N 60°19' E 018°60'917.2
2017-Jun-30 02:30N 60°28' E 018°59'815.7
2017-Jun-30 02:00N 60°34' E 019°09'917.5
2017-Jun-30 01:30N 60°38' E 019°24'917.3
2017-Jun-30 01:00N 60°43' E 019°39'917.3
2017-Jun-30 00:30N 60°48' E 019°54'917.1
2017-Jun-30 00:01N 60°53' E 020°08'917.1
2017-Jun-29 23:30N 60°57' E 020°23'917.2
2017-Jun-29 23:00N 61°02' E 020°38'917.2
2017-Jun-29 22:30N 61°07' E 020°53'715.0
2017-Jun-29 22:00N 61°08' E 021°08'611.4
2017-Jun-29 21:30N 61°06' E 021°19'4 7.8
2017-Jun-29 21:00N 61°08' E 021°26'0 0.0
2017-Jun-29 20:24N 61°08' E 021°26'0 0.0
2017-Jun-29 20:00N 61°08' E 021°26'0 0.0
2017-Jun-29 19:30N 61°08' E 021°26'0 0.0
2017-Jun-29 19:00N 61°08' E 021°26'0 0.0
2017-Jun-29 18:30N 61°08' E 021°26'0 0.0
2017-Jun-29 18:00N 61°08' E 021°26'0 0.0
2017-Jun-29 17:30N 61°08' E 021°26'0 0.0
2017-Jun-29 17:00N 61°08' E 021°26'0 0.0
2017-Jun-29 16:30N 61°08' E 021°26'0 0.0
2017-Jun-29 16:00N 61°08' E 021°26'0 0.0
2017-Jun-29 15:30N 61°08' E 021°26'0 0.0
2017-Jun-29 15:00N 61°08' E 021°26'0 0.0
2017-Jun-29 14:00N 61°08' E 021°26'0 0.0
2017-Jun-29 13:30N 61°08' E 021°26'0 0.0
2017-Jun-29 13:00N 61°08' E 021°26'0 0.0
2017-Jun-29 12:30N 61°08' E 021°26'0 0.0
2017-Jun-29 12:00N 61°08' E 021°26'0 0.0
2017-Jun-29 11:30N 61°08' E 021°26'0 0.0
2017-Jun-29 11:00N 61°08' E 021°26'0 0.0
2017-Jun-29 10:30N 61°08' E 021°26'0 0.0
2017-Jun-29 10:00N 61°08' E 021°26'0 0.0
2017-Jun-29 09:30N 61°08' E 021°26'0 0.0
2017-Jun-29 09:00N 61°08' E 021°26'0 0.0
2017-Jun-29 08:30N 61°08' E 021°26'0 0.0
2017-Jun-29 08:00N 61°08' E 021°26'0 0.0
2017-Jun-29 07:30N 61°08' E 021°26'0 0.0
2017-Jun-29 07:00N 61°08' E 021°26'0 0.0
2017-Jun-29 06:30N 61°08' E 021°26'0 0.0
2017-Jun-29 06:00N 61°08' E 021°26'0 0.0
2017-Jun-29 05:30N 61°08' E 021°26'0 0.0
2017-Jun-29 05:00N 61°08' E 021°26'0 0.0
2017-Jun-29 04:30N 61°08' E 021°26'0 0.0
2017-Jun-29 04:00N 61°08' E 021°26'0 0.0
2017-Jun-29 03:30N 61°08' E 021°26'0 0.0
2017-Jun-29 03:00N 61°08' E 021°26'0 0.0
2017-Jun-29 02:30N 61°08' E 021°26'0 0.0
2017-Jun-29 02:00N 61°08' E 021°26'0 0.0
2017-Jun-29 01:30N 61°08' E 021°26'0 0.0
2017-Jun-29 01:00N 61°08' E 021°26'0 0.0
2017-Jun-29 00:30N 61°08' E 021°26'0 0.0
2017-Jun-28 23:56N 61°08' E 021°26'0 0.0
2017-Jun-28 23:29N 61°08' E 021°26'0 0.0
2017-Jun-28 22:59N 61°08' E 021°26'0 0.0
2017-Jun-28 22:29N 61°08' E 021°26'0 0.0
2017-Jun-28 21:59N 61°08' E 021°26'0 0.0
2017-Jun-28 21:29N 61°08' E 021°26'0 0.0
2017-Jun-28 20:59N 61°08' E 021°26'0 0.0
2017-Jun-28 20:29N 61°08' E 021°26'0 0.0
2017-Jun-28 19:59N 61°08' E 021°26'0 0.0
2017-Jun-28 19:29N 61°08' E 021°26'0 0.0
2017-Jun-28 19:00N 61°08' E 021°26'0 0.0
2017-Jun-28 18:28N 61°08' E 021°26'0 0.0
2017-Jun-28 17:59N 61°08' E 021°26'0 0.0
2017-Jun-28 17:29N 61°08' E 021°26'0 0.0
2017-Jun-28 16:59N 61°08' E 021°26'0 0.0
2017-Jun-28 16:29N 61°08' E 021°26'0 0.0
2017-Jun-28 15:59N 61°08' E 021°26'0 0.0
2017-Jun-28 15:29N 61°08' E 021°26'0 0.0
2017-Jun-28 14:59N 61°08' E 021°26'0 0.0
2017-Jun-28 14:29N 61°08' E 021°26'0 0.0
2017-Jun-28 13:26N 61°08' E 021°26'0 0.0
2017-Jun-28 12:56N 61°08' E 021°26'0 0.0
2017-Jun-28 12:29N 61°08' E 021°26'0 0.0
2017-Jun-28 11:59N 61°08' E 021°26'0 0.0
2017-Jun-28 11:29N 61°08' E 021°26'0 0.0
2017-Jun-28 10:56N 61°08' E 021°26'0 0.0
2017-Jun-28 10:29N 61°08' E 021°26'0 0.0
2017-Jun-28 09:59N 61°08' E 021°26'0 0.0
2017-Jun-28 09:29N 61°08' E 021°26'0 0.0
2017-Jun-28 08:59N 61°08' E 021°26'0 0.0
2017-Jun-28 08:29N 61°08' E 021°26'0 0.0
2017-Jun-28 07:59N 61°08' E 021°26'0 0.0
2017-Jun-28 07:29N 61°08' E 021°26'0 0.0
2017-Jun-28 06:59N 61°08' E 021°26'0 0.0
2017-Jun-28 06:29N 61°08' E 021°26'0 0.0
2017-Jun-28 05:59N 61°08' E 021°26'0 0.0
2017-Jun-28 05:29N 61°08' E 021°26'0 0.0
2017-Jun-28 04:59N 61°08' E 021°26'0 0.0
2017-Jun-28 04:29N 61°08' E 021°26'0 0.0
2017-Jun-28 03:59N 61°08' E 021°26'0 0.0
2017-Jun-28 03:29N 61°08' E 021°26'0 0.0
2017-Jun-28 02:59N 61°08' E 021°26'0 0.0
2017-Jun-28 02:29N 61°08' E 021°26'0 0.0
2017-Jun-28 01:59N 61°08' E 021°26'0 0.0
2017-Jun-28 01:29N 61°08' E 021°26'0 0.0
2017-Jun-28 00:59N 61°08' E 021°26'0 0.0
2017-Jun-28 00:29N 61°08' E 021°26'0 0.0
2017-Jun-27 23:59N 61°08' E 021°26'0 0.0
2017-Jun-27 23:29N 61°08' E 021°26'0 0.0
2017-Jun-27 22:59N 61°08' E 021°26'0 0.4
2017-Jun-27 22:30N 61°08' E 021°26'3 5.5
2017-Jun-27 22:00N 61°06' E 021°21'510.7
2017-Jun-27 21:30N 61°08' E 021°10'2 3.7
2017-Jun-27 21:01N 61°09' E 021°07'2 3.2
2017-Jun-27 20:29N 61°11' E 021°07'0 0.1
2017-Jun-27 20:00N 61°11' E 021°07'0 0.1
2017-Jun-27 19:29N 61°11' E 021°07'0 0.1
2017-Jun-27 18:58N 61°11' E 021°07'0 0.1
2017-Jun-27 18:28N 61°11' E 021°07'0 0.2
2017-Jun-27 17:58N 61°11' E 021°07'  
Track history (hours):
 
Tides and Currents Weather Stations Pressure Air Temp Water Temp Dewpoint Dewpoint Depression Visibility Wind Speed Wind Dir Waves Ship Positions

Suomigracht

Last reported at 2017-Jul-07 17:40 UTC. Time now 2017-Jul-28 08:38 UTC.
Position N 48°39' W 009°07'.
Warning: this ship's position is 20 days out of date.

Length 173 m; beam 26 m.

Type: Cargo ship. MMSI: 246100000.

Date/timePositionNaut miles runAvg speedWind from/ knotsBaromVisibWave heightAir tempDewpointWater temp
2017-Jul-07 17:40N 48°39' W 009°07'316.2
2017-Jul-07 17:30N 48°40' W 009°04'7815.7
2017-Jul-07 12:32N 49°06' W 007°12'016.0
2017-Jul-07 12:31N 49°06' W 007°11'1315.9
2017-Jul-07 11:43N 49°10' W 006°53'316.3
2017-Jul-07 11:31N 49°11' W 006°48'816.4
2017-Jul-07 11:01N 49°13' W 006°36'816.6
2017-Jul-07 10:30N 49°15' W 006°24'816.8
2017-Jul-07 10:00N 49°18' W 006°11'816.8
2017-Jul-07 09:31N 49°20' W 005°59'917.2
2017-Jul-07 09:00N 49°23' W 005°46'917.2
2017-Jul-07 08:30N 49°26' W 005°34'1017.1
2017-Jul-07 07:55N 49°29' W 005°19'716.8
2017-Jul-07 07:31N 49°31' W 005°09'1016.5
2017-Jul-07 06:55N 49°34' W 004°55'716.2
2017-Jul-07 06:30N 49°36' W 004°45'816.0
2017-Jul-07 05:59N 49°39' W 004°33'715.7
2017-Jul-07 05:30N 49°42' W 004°22'815.5
2017-Jul-07 04:58N 49°44' W 004°10'715.4
2017-Jul-07 04:30N 49°47' W 003°60'815.3
2017-Jul-07 04:01N 49°49' W 003°48'815.6
2017-Jul-07 03:31N 49°51' W 003°36'816.0
2017-Jul-07 03:01N 49°53' W 003°25'816.5
2017-Jul-07 02:31N 49°56' W 003°13'917.1
2017-Jul-07 02:01N 49°59' W 002°60'917.6
2017-Jul-07 01:31N 50°01' W 002°47'918.0
2017-Jul-07 01:01N 50°04' W 002°34'918.4
2017-Jul-07 00:31N 50°07' W 002°20'918.7
2017-Jul-07 00:01N 50°09' W 002°06'1018.7
2017-Jul-06 23:29N 50°12' W 001°51'1718.0
2017-Jul-06 22:33N 50°17' W 001°26'323 6.9
2017-Jul-05 00:05N 53°42' E 005°18'0 0.0
2017-Jul-04 23:50N 53°42' E 005°18'0 0.0
2017-Jul-04 23:29N 53°42' E 005°18'0 0.0
2017-Jul-04 22:56N 53°42' E 005°18'0 0.0
2017-Jul-04 22:29N 53°42' E 005°18'0 0.0
2017-Jul-04 21:59N 53°42' E 005°18'57 2.3
2017-Jul-03 21:22N 53°27' E 006°50'0 0.0
2017-Jul-03 20:58N 53°27' E 006°50'0 0.0
2017-Jul-03 20:16N 53°27' E 006°50'0 0.0
2017-Jul-03 20:01N 53°27' E 006°50'0 0.0
2017-Jul-03 19:31N 53°27' E 006°50'0 0.0
2017-Jul-03 19:00N 53°27' E 006°50'0 0.0
2017-Jul-03 18:27N 53°27' E 006°50'0 0.0
2017-Jul-03 18:00N 53°27' E 006°50'0 0.0
2017-Jul-03 17:30N 53°27' E 006°50'0 0.0
2017-Jul-03 17:00N 53°27' E 006°50'0 0.0
2017-Jul-03 16:30N 53°27' E 006°50'0 0.0
2017-Jul-03 16:00N 53°27' E 006°50'1 2.4
2017-Jul-03 15:30N 53°28' E 006°50'83 6.5
2017-Jul-03 02:51N 54°50' E 006°34'516.0
2017-Jul-03 02:30N 54°56' E 006°34'816.0
2017-Jul-03 02:00N 55°04' E 006°36'815.9
2017-Jul-03 01:31N 55°12' E 006°37'816.0
2017-Jul-03 00:59N 55°20' E 006°38'815.9
2017-Jul-03 00:30N 55°28' E 006°40'18213.0
2017-Jul-02 10:35N 57°48' E 010°08'414.9
2017-Jul-02 10:19N 57°48' E 010°16'515.3
2017-Jul-02 10:00N 57°48' E 010°25'715.0
2017-Jul-02 09:30N 57°48' E 010°39'611.5
2017-Jul-02 09:00N 57°44' E 010°47'611.8
2017-Jul-02 08:31N 57°41' E 010°37'0 0.4
2017-Jul-02 07:54N 57°42' E 010°38'0 0.0
2017-Jul-02 07:30N 57°42' E 010°38'0 0.0
2017-Jul-02 07:00N 57°42' E 010°38'0 0.0
2017-Jul-02 06:30N 57°42' E 010°38'0 0.0
2017-Jul-02 06:00N 57°42' E 010°38'0 0.0
2017-Jul-02 05:30N 57°42' E 010°38'0 0.0
2017-Jul-02 05:00N 57°42' E 010°38'0 0.0
2017-Jul-02 04:30N 57°42' E 010°38'0 0.0
2017-Jul-02 03:57N 57°42' E 010°38'0 0.0
2017-Jul-02 03:30N 57°42' E 010°38'0 0.0
2017-Jul-02 02:48N 57°42' E 010°38'0 0.0
2017-Jul-02 02:15N 57°42' E 010°38'0 0.0
2017-Jul-02 02:00N 57°42' E 010°38'0 0.0
2017-Jul-02 01:03N 57°42' E 010°38'0 0.0
2017-Jul-02 00:42N 57°42' E 010°38'0 0.0
2017-Jul-02 00:18N 57°42' E 010°38'0 0.1
2017-Jul-02 00:00N 57°41' E 010°38'1 2.6
2017-Jul-01 23:28N 57°41' E 010°40'711.9
2017-Jul-01 22:52N 57°37' E 010°51'514.9
2017-Jul-01 22:30N 57°35' E 011°00'816.2
2017-Jul-01 22:00N 57°32' E 011°15'815.8
2017-Jul-01 21:30N 57°28' E 011°26'917.1
2017-Jul-01 21:00N 57°20' E 011°32'917.2
2017-Jul-01 20:30N 57°12' E 011°37'817.1
2017-Jul-01 20:00N 57°04' E 011°42'917.0
2017-Jul-01 19:30N 56°56' E 011°48'816.7
2017-Jul-01 19:00N 56°48' E 011°53'815.8
2017-Jul-01 18:30N 56°40' E 011°48'816.4
2017-Jul-01 18:00N 56°33' E 011°41'9715.1
2017-Jul-01 11:35N 54°59' E 010°59'116.1
2017-Jul-01 11:30N 54°58' E 010°57'816.5
2017-Jul-01 11:00N 54°51' E 010°50'816.3
2017-Jul-01 10:30N 54°43' E 010°47'815.1
2017-Jul-01 10:00N 54°38' E 010°56'816.4
2017-Jul-01 09:31N 54°36' E 011°10'917.1
2017-Jul-01 09:00N 54°32' E 011°23'917.2
2017-Jul-01 08:31N 54°29' E 011°36'816.8
2017-Jul-01 08:00N 54°26' E 011°50'917.2
2017-Jul-01 07:30N 54°26' E 012°05'714.5
2017-Jul-01 07:00N 54°31' E 012°13'816.3
2017-Jul-01 06:30N 54°38' E 012°20'4516.8
2017-Jul-01 03:51N 54°57' E 013°30'617.4
2017-Jul-01 03:30N 54°59' E 013°40'917.1
2017-Jul-01 03:00N 55°02' E 013°54'816.3
2017-Jul-01 02:30N 55°06' E 014°07'917.2
2017-Jul-01 02:00N 55°13' E 014°16'817.2
2017-Jul-01 01:30N 55°19' E 014°25'917.2
2017-Jul-01 01:00N 55°26' E 014°35'917.1
2017-Jul-01 00:30N 55°31' E 014°47'917.2
2017-Jul-01 00:00N 55°35' E 015°00'917.3
2017-Jun-30 23:30N 55°39' E 015°14'817.0
2017-Jun-30 23:00N 55°43' E 015°27'917.1
2017-Jun-30 22:30N 55°48' E 015°40'917.2
2017-Jun-30 22:00N 55°52' E 015°53'917.3
2017-Jun-30 21:30N 55°56' E 016°07'917.4
2017-Jun-30 21:00N 56°01' E 016°20'917.7
2017-Jun-30 20:30N 56°05' E 016°33'917.1
2017-Jun-30 20:00N 56°11' E 016°45'917.4
2017-Jun-30 19:30N 56°19' E 016°51'18816.9
2017-Jun-30 08:24N 59°05' E 019°34'716.4
2017-Jun-30 08:00N 59°11' E 019°40'816.9
2017-Jun-30 07:30N 59°18' E 019°49'917.1
2017-Jun-30 07:00N 59°26' E 019°58'816.2
2017-Jun-30 06:30N 59°33' E 020°04'815.6
2017-Jun-30 06:00N 59°39' E 019°54'816.1
2017-Jun-30 05:30N 59°45' E 019°43'816.4
2017-Jun-30 05:00N 59°51' E 019°33'816.6
2017-Jun-30 04:31N 59°58' E 019°22'816.8
2017-Jun-30 04:01N 60°04' E 019°11'816.9
2017-Jun-30 03:30N 60°10' E 019°00'917.2
2017-Jun-30 03:00N 60°19' E 018°60'917.2
2017-Jun-30 02:30N 60°28' E 018°59'815.7
2017-Jun-30 02:00N 60°34' E 019°09'917.5
2017-Jun-30 01:30N 60°38' E 019°24'917.3
2017-Jun-30 01:00N 60°43' E 019°39'917.3
2017-Jun-30 00:30N 60°48' E 019°54'917.1
2017-Jun-30 00:01N 60°53' E 020°08'917.1
2017-Jun-29 23:30N 60°57' E 020°23'917.2
2017-Jun-29 23:00N 61°02' E 020°38'917.2
2017-Jun-29 22:30N 61°07' E 020°53'715.0
2017-Jun-29 22:00N 61°08' E 021°08'611.4
2017-Jun-29 21:30N 61°06' E 021°19'4 7.8
2017-Jun-29 21:00N 61°08' E 021°26'0 0.0
2017-Jun-29 20:24N 61°08' E 021°26'0 0.0
2017-Jun-29 20:00N 61°08' E 021°26'0 0.0
2017-Jun-29 19:30N 61°08' E 021°26'0 0.0
2017-Jun-29 19:00N 61°08' E 021°26'0 0.0
2017-Jun-29 18:30N 61°08' E 021°26'0 0.0
2017-Jun-29 18:00N 61°08' E 021°26'0 0.0
2017-Jun-29 17:30N 61°08' E 021°26'0 0.0
2017-Jun-29 17:00N 61°08' E 021°26'0 0.0
2017-Jun-29 16:30N 61°08' E 021°26'0 0.0
2017-Jun-29 16:00N 61°08' E 021°26'0 0.0
2017-Jun-29 15:30N 61°08' E 021°26'0 0.0
2017-Jun-29 15:00N 61°08' E 021°26'0 0.0
2017-Jun-29 14:00N 61°08' E 021°26'0 0.0
2017-Jun-29 13:30N 61°08' E 021°26'0 0.0
2017-Jun-29 13:00N 61°08' E 021°26'0 0.0
2017-Jun-29 12:30N 61°08' E 021°26'0 0.0
2017-Jun-29 12:00N 61°08' E 021°26'0 0.0
2017-Jun-29 11:30N 61°08' E 021°26'0 0.0
2017-Jun-29 11:00N 61°08' E 021°26'0 0.0
2017-Jun-29 10:30N 61°08' E 021°26'0 0.0
2017-Jun-29 10:00N 61°08' E 021°26'0 0.0
2017-Jun-29 09:30N 61°08' E 021°26'0 0.0
2017-Jun-29 09:00N 61°08' E 021°26'0 0.0
2017-Jun-29 08:30N 61°08' E 021°26'0 0.0
2017-Jun-29 08:00N 61°08' E 021°26'0 0.0
2017-Jun-29 07:30N 61°08' E 021°26'0 0.0
2017-Jun-29 07:00N 61°08' E 021°26'0 0.0
2017-Jun-29 06:30N 61°08' E 021°26'0 0.0
2017-Jun-29 06:00N 61°08' E 021°26'0 0.0
2017-Jun-29 05:30N 61°08' E 021°26'0 0.0
2017-Jun-29 05:00N 61°08' E 021°26'0 0.0
2017-Jun-29 04:30N 61°08' E 021°26'0 0.0
2017-Jun-29 04:00N 61°08' E 021°26'0 0.0
2017-Jun-29 03:30N 61°08' E 021°26'0 0.0
2017-Jun-29 03:00N 61°08' E 021°26'0 0.0
2017-Jun-29 02:30N 61°08' E 021°26'0 0.0
2017-Jun-29 02:00N 61°08' E 021°26'0 0.0
2017-Jun-29 01:30N 61°08' E 021°26'0 0.0
2017-Jun-29 01:00N 61°08' E 021°26'0 0.0
2017-Jun-29 00:30N 61°08' E 021°26'0 0.0
2017-Jun-28 23:56N 61°08' E 021°26'0 0.0
2017-Jun-28 23:29N 61°08' E 021°26'0 0.0
2017-Jun-28 22:59N 61°08' E 021°26'0 0.0
2017-Jun-28 22:29N 61°08' E 021°26'0 0.0
2017-Jun-28 21:59N 61°08' E 021°26'0 0.0
2017-Jun-28 21:29N 61°08' E 021°26'0 0.0
2017-Jun-28 20:59N 61°08' E 021°26'0 0.0
2017-Jun-28 20:29N 61°08' E 021°26'0 0.0
2017-Jun-28 19:59N 61°08' E 021°26'0 0.0
2017-Jun-28 19:29N 61°08' E 021°26'0 0.0
2017-Jun-28 19:00N 61°08' E 021°26'0 0.0
2017-Jun-28 18:28N 61°08' E 021°26'0 0.0
2017-Jun-28 17:59N 61°08' E 021°26'0 0.0
2017-Jun-28 17:29N 61°08' E 021°26'0 0.0
2017-Jun-28 16:59N 61°08' E 021°26'0 0.0
2017-Jun-28 16:29N 61°08' E 021°26'0 0.0
2017-Jun-28 15:59N 61°08' E 021°26'0 0.0
2017-Jun-28 15:29N 61°08' E 021°26'0 0.0
2017-Jun-28 14:59N 61°08' E 021°26'0 0.0
2017-Jun-28 14:29N 61°08' E 021°26'0 0.0
2017-Jun-28 13:26N 61°08' E 021°26'0 0.0
2017-Jun-28 12:56N 61°08' E 021°26'0 0.0
2017-Jun-28 12:29N 61°08' E 021°26'0 0.0
2017-Jun-28 11:59N 61°08' E 021°26'0 0.0
2017-Jun-28 11:29N 61°08' E 021°26'0 0.0
2017-Jun-28 10:56N 61°08' E 021°26'0 0.0
2017-Jun-28 10:29N 61°08' E 021°26'0 0.0
2017-Jun-28 09:59N 61°08' E 021°26'0 0.0
2017-Jun-28 09:29N 61°08' E 021°26'0 0.0
2017-Jun-28 08:59N 61°08' E 021°26'0 0.0
2017-Jun-28 08:29N 61°08' E 021°26'0 0.0
2017-Jun-28 07:59N 61°08' E 021°26'0 0.0
2017-Jun-28 07:29N 61°08' E 021°26'0 0.0
2017-Jun-28 06:59N 61°08' E 021°26'0 0.0
2017-Jun-28 06:29N 61°08' E 021°26'0 0.0
2017-Jun-28 05:59N 61°08' E 021°26'0 0.0
2017-Jun-28 05:29N 61°08' E 021°26'0 0.0
2017-Jun-28 04:59N 61°08' E 021°26'0 0.0
2017-Jun-28 04:29N 61°08' E 021°26'0 0.0
2017-Jun-28 03:59N 61°08' E 021°26'0 0.0
2017-Jun-28 03:29N 61°08' E 021°26'0 0.0
2017-Jun-28 02:59N 61°08' E 021°26'0 0.0
2017-Jun-28 02:29N 61°08' E 021°26'0 0.0
2017-Jun-28 01:59N 61°08' E 021°26'0 0.0
2017-Jun-28 01:29N 61°08' E 021°26'0 0.0
2017-Jun-28 00:59N 61°08' E 021°26'0 0.0
2017-Jun-28 00:29N 61°08' E 021°26'0 0.0
2017-Jun-27 23:59N 61°08' E 021°26'0 0.0
2017-Jun-27 23:29N 61°08' E 021°26'0 0.0
2017-Jun-27 22:59N 61°08' E 021°26'0 0.4
2017-Jun-27 22:30N 61°08' E 021°26'3 5.5
2017-Jun-27 22:00N 61°06' E 021°21'510.7
2017-Jun-27 21:30N 61°08' E 021°10'2 3.7
2017-Jun-27 21:01N 61°09' E 021°07'2 3.2
2017-Jun-27 20:29N 61°11' E 021°07'0 0.1
2017-Jun-27 20:00N 61°11' E 021°07'0 0.1
2017-Jun-27 19:29N 61°11' E 021°07'0 0.1
2017-Jun-27 18:58N 61°11' E 021°07'0 0.1
2017-Jun-27 18:28N 61°11' E 021°07'0 0.2
2017-Jun-27 17:58N 61°11' E 021°07'  

Dump ship's entire track history